Time;durP1;ratioP1;P1;durP2;ratioP2;P2;SDS_P1;SDS_P2;PMS_P1;PMS_P2;Temp;Humidity;BMP_temperature;BMP_pressure;BME280_temperature;BME280_humidity;BME280_pressure;Samples;Min_cycle;Max_cycle;Signal;HPM_P1;HPM_P2
2023/07/29 00:00:46;;;;;;;329.15;186.23;;;;;;;11.90;100.00;99462.09;5055200;28;20032;-82
2023/07/29 00:03:11;;;;;;;328.83;186.20;;;;;;;11.95;100.00;99464.97;5071849;28;20032;-81
2023/07/29 00:05:38;;;;;;;331.30;187.50;;;;;;;12.01;100.00;99466.78;5056388;28;20037;-81
2023/07/29 00:08:03;;;;;;;331.45;187.48;;;;;;;12.05;100.00;99468.03;5022134;28;20025;-80
2023/07/29 00:10:35;;;;;;;340.90;192.77;;;;;;;12.06;100.00;99461.59;5071699;28;20467;-82
2023/07/29 00:13:01;;;;;;;342.88;194.18;;;;;;;12.10;100.00;99466.31;5071823;28;20051;-81
2023/07/29 00:15:27;;;;;;;342.45;193.88;;;;;;;12.13;100.00;99466.94;5055381;28;20399;-81
2023/07/29 00:17:52;;;;;;;325.15;184.55;;;;;;;12.17;100.00;99469.00;5035283;28;20078;-81
2023/07/29 00:20:18;;;;;;;333.88;188.93;;;;;;;12.18;100.00;99453.63;5035700;28;20079;-81
2023/07/29 00:22:43;;;;;;;337.85;191.15;;;;;;;12.19;100.00;99455.28;5035181;28;20479;-80
2023/07/29 00:25:09;;;;;;;334.15;189.18;;;;;;;12.26;100.00;99461.47;5035345;28;20037;-80
2023/07/29 00:27:34;;;;;;;330.58;187.07;;;;;;;12.20;100.00;99448.84;5035163;28;20128;-80
2023/07/29 00:30:00;;;;;;;337.33;190.18;;;;;;;12.29;100.00;99463.72;5051693;28;20036;-81
2023/07/29 00:32:29;;;;;;;343.85;193.57;;;;;;;12.22;100.00;99463.75;5045996;28;20079;-81
2023/07/29 00:34:54;;;;;;;326.35;184.30;;;;;;;12.08;100.00;99465.72;5038194;28;20037;-80
2023/07/29 00:37:21;;;;;;;318.67;180.65;;;;;;;12.01;100.00;99464.94;5055330;28;20029;-81
2023/07/29 00:39:46;;;;;;;317.42;179.93;;;;;;;12.01;100.00;99458.72;5038674;28;20037;-80
2023/07/29 00:42:12;;;;;;;312.30;176.95;;;;;;;11.86;100.00;99440.16;5055277;28;20029;-80
2023/07/29 00:44:38;;;;;;;315.05;178.60;;;;;;;11.96;100.00;99461.22;5054924;28;20104;-80
2023/07/29 00:47:05;;;;;;;309.05;176.05;;;;;;;11.94;100.00;99468.72;5038594;28;20035;-81
2023/07/29 00:49:30;;;;;;;316.23;180.43;;;;;;;11.80;100.00;99447.22;5054734;28;20034;-80
2023/07/29 00:51:56;;;;;;;316.23;180.95;;;;;;;11.91;100.00;99461.03;5064739;28;20032;-80
2023/07/29 00:54:22;;;;;;;318.92;181.55;;;;;;;12.06;100.00;99461.59;5075947;28;20032;-80
2023/07/29 00:56:47;;;;;;;319.27;182.57;;;;;;;12.18;100.00;99457.16;5057877;28;20037;-80
2023/07/29 00:59:13;;;;;;;316.55;181.07;;;;;;;12.19;100.00;99450.72;5058156;28;20033;-82
2023/07/29 01:01:39;;;;;;;319.73;181.57;;;;;;;12.10;100.00;99442.06;5074515;28;20033;-81
2023/07/29 01:04:04;;;;;;;303.10;172.73;;;;;;;12.09;100.00;99453.06;5041678;28;20040;-81
2023/07/29 01:06:35;;;;;;;317.42;180.63;;;;;;;12.09;100.00;99463.84;5074748;28;20025;-81
2023/07/29 01:09:23;;;;;;;319.83;181.95;;;;;;;12.05;100.00;99459.94;5072665;28;20135;-80
2023/07/29 01:12:11;;;;;;;310.13;176.75;;;;;;;11.95;100.00;99449.63;5041499;28;20053;-80
2023/07/29 01:15:12;;;;;;;313.50;178.82;;;;;;;12.02;100.00;99463.91;5058297;28;20094;-80
2023/07/29 01:17:51;;;;;;;303.03;174.37;;;;;;;12.02;100.00;99468.47;5075521;28;20039;-81
2023/07/29 01:20:17;;;;;;;304.33;174.43;;;;;;;11.99;100.00;99467.03;5057882;28;20055;-81
2023/07/29 01:22:44;;;;;;;302.98;173.98;;;;;;;11.93;100.00;99456.28;5057971;28;20036;-80
2023/07/29 01:25:09;;;;;;;302.08;173.32;;;;;;;11.95;100.00;99459.59;5040522;28;20360;-81
2023/07/29 01:27:35;;;;;;;244.70;145.38;;;;;;;11.87;100.00;99466.06;5075452;28;20049;-83
2023/07/29 01:30:02;;;;;;;235.82;141.55;;;;;;;11.75;100.00;99465.88;5057644;28;20402;-80
2023/07/29 01:32:29;;;;;;;239.68;143.60;;;;;;;11.66;100.00;99469.84;5057457;28;20158;-80
2023/07/29 01:35:04;;;;;;;236.13;141.95;;;;;;;11.62;100.00;99460.56;5057372;28;20028;-80
2023/07/29 01:37:32;;;;;;;239.13;143.48;;;;;;;11.66;100.00;99459.09;5057703;28;20150;-81
2023/07/29 01:39:59;;;;;;;252.68;149.32;;;;;;;11.76;100.00;99467.53;5057699;28;20106;-81
2023/07/29 01:42:25;;;;;;;310.60;178.90;;;;;;;11.85;100.00;99466.25;5075124;28;20106;-82
2023/07/29 01:44:50;;;;;;;322.70;185.18;;;;;;;11.86;100.00;99462.53;5057073;28;20068;-80
2023/07/29 01:47:16;;;;;;;313.60;179.93;;;;;;;11.82;100.00;99458.56;5057428;28;20056;-80
2023/07/29 01:49:42;;;;;;;309.63;177.50;;;;;;;11.85;100.00;99462.72;5073566;28;20119;-81
2023/07/29 01:52:07;;;;;;;318.23;182.40;;;;;;;11.91;100.00;99463.75;5073686;28;20594;-80
2023/07/29 01:54:33;;;;;;;322.42;183.35;;;;;;;11.94;100.00;99457.94;5057628;28;20039;-80
2023/07/29 01:56:59;;;;;;;329.92;188.43;;;;;;;11.86;100.00;99440.16;5073811;28;20414;-80
2023/07/29 01:59:24;;;;;;;332.40;189.68;;;;;;;11.98;100.00;99448.38;5056573;28;20035;-81
2023/07/29 02:01:50;;;;;;;331.38;189.35;;;;;;;11.99;100.00;99447.34;5073333;28;20455;-82
2023/07/29 02:04:15;;;;;;;336.73;190.73;;;;;;;12.03;100.00;99445.84;5040383;28;20170;-81
2023/07/29 02:06:41;;;;;;;335.00;190.85;;;;;;;12.09;100.00;99455.75;5073269;28;20057;-81
2023/07/29 02:09:07;;;;;;;328.40;187.13;;;;;;;11.94;100.00;99417.53;5056965;28;20028;-81
2023/07/29 02:11:32;;;;;;;323.55;183.98;;;;;;;12.16;100.00;99447.63;5055278;28;20063;-81
2023/07/29 02:13:58;;;;;;;320.48;182.50;;;;;;;12.17;100.00;99449.28;5039269;28;20467;-80
2023/07/29 02:16:23;;;;;;;329.10;187.82;;;;;;;12.17;100.00;99444.75;5071414;28;20036;-80
2023/07/29 02:18:49;;;;;;;313.83;178.82;;;;;;;12.15;100.00;99444.13;5055639;28;20033;-81
2023/07/29 02:21:16;;;;;;;325.65;186.57;;;;;;;12.16;100.00;99443.06;5048617;28;20037;-80
2023/07/29 02:23:41;;;;;;;331.73;189.90;;;;;;;11.98;100.00;99426.81;5053286;28;20494;-81
2023/07/29 02:26:07;;;;;;;316.10;181.23;;;;;;;11.86;100.00;99422.13;5071913;28;20029;-80
2023/07/29 02:28:32;;;;;;;329.70;189.25;;;;;;;11.82;100.00;99437.03;5056363;28;20035;-80
2023/07/29 02:31:23;;;;;;;314.05;180.75;;;;;;;11.63;100.00;99435.28;5074287;28;20032;-81
2023/07/29 02:33:49;;;;;;;316.67;183.40;;;;;;;11.55;100.00;99438.22;5042460;28;20033;-80
2023/07/29 02:36:15;;;;;;;313.98;181.90;;;;;;;11.51;100.00;99413.63;5053052;28;20037;-81
2023/07/29 02:38:41;;;;;;;313.58;181.90;;;;;;;11.66;100.00;99426.78;5069821;28;20039;-80
2023/07/29 02:41:09;;;;;;;309.60;179.20;;;;;;;11.66;100.00;99426.78;5069753;28;20399;-80
2023/07/29 02:43:35;;;;;;;314.45;181.80;;;;;;;11.84;100.00;99442.22;5036845;28;20412;-80
2023/07/29 02:46:02;;;;;;;320.48;185.27;;;;;;;11.84;100.00;99434.97;5055975;28;20060;-81
2023/07/29 02:48:28;;;;;;;323.35;186.73;;;;;;;11.81;100.00;99427.31;5055923;28;20078;-80
2023/07/29 02:50:54;;;;;;;319.45;184.15;;;;;;;11.94;100.00;99445.28;5072607;28;20044;-80
2023/07/29 02:53:22;;;;;;;318.10;183.00;;;;;;;12.01;100.00;99445.25;5072230;28;20034;-80
2023/07/29 02:55:48;;;;;;;327.52;187.85;;;;;;;12.05;100.00;99438.38;5071238;28;20115;-82
2023/07/29 02:58:14;;;;;;;327.33;187.60;;;;;;;12.03;100.00;99441.28;5053499;28;20170;-81
2023/07/29 03:00:41;;;;;;;325.08;186.45;;;;;;;12.03;100.00;99443.16;5053645;28;20040;-80
2023/07/29 03:03:08;;;;;;;325.25;186.43;;;;;;;12.09;100.00;99445.81;5033445;28;20074;-80
2023/07/29 03:05:34;;;;;;;326.58;187.40;;;;;;;12.10;100.00;99441.25;5044929;28;20060;-80
2023/07/29 03:07:59;;;;;;;330.35;189.07;;;;;;;12.03;100.00;99435.09;5028876;28;20068;-80
2023/07/29 03:10:25;;;;;;;321.20;184.65;;;;;;;11.98;100.00;99453.75;5046453;28;20034;-82
2023/07/29 03:12:51;;;;;;;323.83;186.35;;;;;;;11.84;100.00;99453.81;5054934;28;20028;-80
2023/07/29 03:15:16;;;;;;;322.75;185.48;;;;;;;11.68;100.00;99435.47;5072792;28;20056;-79
2023/07/29 03:17:42;;;;;;;314.58;181.77;;;;;;;11.66;100.00;99456.38;5049610;28;20408;-79
2023/07/29 03:20:08;;;;;;;317.55;182.82;;;;;;;11.60;100.00;99444.63;5067966;28;20047;-79
2023/07/29 03:22:34;;;;;;;315.48;182.77;;;;;;;11.53;100.00;99443.00;5054458;28;20387;-78
2023/07/29 03:24:59;;;;;;;251.60;149.63;;;;;;;11.59;100.00;99448.38;5071708;28;20493;-78
2023/07/29 03:27:25;;;;;;;248.43;148.55;;;;;;;11.68;100.00;99456.19;5071422;28;20044;-78
2023/07/29 03:29:51;;;;;;;246.63;147.85;;;;;;;11.72;100.00;99462.78;5051253;28;20025;-79
2023/07/29 03:32:16;;;;;;;289.35;168.40;;;;;;;11.75;100.00;99454.25;5053378;28;20047;-79
2023/07/29 03:34:42;;;;;;;313.92;181.45;;;;;;;11.70;100.00;99444.16;5072356;28;20029;-79
2023/07/29 03:37:08;;;;;;;313.17;181.45;;;;;;;11.79;100.00;99459.00;5055054;28;20056;-79
2023/07/29 03:39:34;;;;;;;323.73;187.95;;;;;;;11.78;100.00;99459.25;5070264;28;20460;-79
2023/07/29 03:41:59;;;;;;;324.27;187.82;;;;;;;11.72;100.00;99455.53;5038240;28;20353;-79
2023/07/29 03:44:25;;;;;;;330.20;190.20;;;;;;;11.70;100.00;99449.56;5035394;28;20494;-79
2023/07/29 03:46:51;;;;;;;319.25;184.95;;;;;;;11.67;100.00;99449.97;5033445;28;20379;-80
2023/07/29 03:49:16;;;;;;;319.02;185.57;;;;;;;11.62;100.00;99453.31;5042372;28;20071;-80
2023/07/29 03:51:42;;;;;;;304.10;176.85;;;;;;;11.69;100.00;99453.25;5072040;28;20120;-79
2023/07/29 03:54:08;;;;;;;310.80;180.75;;;;;;;11.76;100.00;99458.63;5072462;28;20040;-80
2023/07/29 03:56:35;;;;;;;317.55;183.18;;;;;;;11.80;100.00;99458.00;5054682;28;20348;-80
2023/07/29 03:59:04;;;;;;;310.13;180.23;;;;;;;11.74;100.00;99453.44;5069505;28;20032;-80
2023/07/29 04:01:30;;;;;;;292.60;171.02;;;;;;;11.82;100.00;99466.66;5070524;28;20039;-82
2023/07/29 04:03:56;;;;;;;295.67;171.90;;;;;;;11.78;100.00;99473.53;5072733;28;20399;-80
2023/07/29 04:06:22;;;;;;;294.60;171.30;;;;;;;11.75;100.00;99471.28;5055442;28;20024;-80
2023/07/29 04:08:48;;;;;;;302.70;176.43;;;;;;;11.72;100.00;99470.84;5074324;28;20033;-80
2023/07/29 04:11:13;;;;;;;304.83;176.93;;;;;;;11.66;100.00;99461.78;5076680;28;20059;-80
2023/07/29 04:13:39;;;;;;;302.98;176.05;;;;;;;11.61;100.00;99464.28;5075382;28;20078;-80
2023/07/29 04:16:05;;;;;;;299.60;174.23;;;;;;;11.41;100.00;99453.63;5076833;28;20483;-82
2023/07/29 04:18:31;;;;;;;287.73;168.13;;;;;;;11.37;100.00;99468.53;5075289;28;20032;-80
2023/07/29 04:20:56;;;;;;;242.70;146.32;;;;;;;11.28;100.00;99462.56;5063123;28;20047;-80
2023/07/29 04:23:22;;;;;;;239.98;144.98;;;;;;;11.23;100.00;99460.50;5055680;28;20414;-80
2023/07/29 04:25:48;;;;;;;239.88;145.43;;;;;;;11.25;100.00;99467.56;5055249;28;20032;-80
2023/07/29 04:28:13;;;;;;;238.68;145.13;;;;;;;11.19;100.00;99464.66;5055735;28;20371;-80
2023/07/29 04:30:39;;;;;;;241.05;146.35;;;;;;;11.15;100.00;99470.66;5038938;28;20037;-80
2023/07/29 04:33:04;;;;;;;240.38;145.82;;;;;;;11.15;100.00;99471.50;5066855;28;20062;-80
2023/07/29 04:35:30;;;;;;;237.82;145.15;;;;;;;11.12;100.00;99471.91;5058867;28;20033;-79
2023/07/29 04:37:56;;;;;;;233.77;143.38;;;;;;;11.09;100.00;99472.34;5075365;28;20086;-80
2023/07/29 04:40:22;;;;;;;227.52;140.52;;;;;;;11.10;100.00;99470.47;5076520;28;20024;-80
2023/07/29 04:42:48;;;;;;;234.88;144.23;;;;;;;11.09;100.00;99474.22;5058944;28;20063;-80
2023/07/29 04:45:14;;;;;;;241.40;147.43;;;;;;;11.11;100.00;99458.66;5058564;28;20032;-82
2023/07/29 04:47:40;;;;;;;247.27;149.57;;;;;;;11.26;100.00;99472.69;5075072;28;20111;-80
2023/07/29 04:50:06;;;;;;;255.45;152.90;;;;;;;11.28;100.00;99465.25;5074842;28;20036;-80
2023/07/29 04:52:32;;;;;;;241.40;146.75;;;;;;;11.16;100.00;99413.13;5058103;28;20043;-80
2023/07/29 04:54:57;;;;;;;244.73;148.18;;;;;;;11.52;100.00;99473.66;5074677;28;20310;-80
2023/07/29 04:57:23;;;;;;;253.63;152.32;;;;;;;11.54;100.00;99474.28;5075722;28;20025;-81
2023/07/29 04:59:48;;;;;;;275.92;162.30;;;;;;;11.54;100.00;99471.59;5058254;28;20432;-81
2023/07/29 05:02:15;;;;;;;301.45;176.55;;;;;;;11.65;100.00;99465.53;5041499;28;20032;-80
2023/07/29 05:04:41;;;;;;;307.35;179.18;;;;;;;11.69;100.00;99455.97;5074733;28;20021;-81
2023/07/29 05:07:07;;;;;;;302.10;176.40;;;;;;;11.84;100.00;99467.28;5037583;28;20112;-80
2023/07/29 05:09:32;;;;;;;308.33;178.88;;;;;;;11.94;100.00;99469.53;5054555;28;20444;-80
2023/07/29 05:11:58;;;;;;;310.90;180.50;;;;;;;12.01;100.00;99474.88;5038281;28;20063;-80
2023/07/29 05:14:23;;;;;;;313.10;181.18;;;;;;;12.03;100.00;99489.78;5054444;28;20422;-80
2023/07/29 05:16:49;;;;;;;310.02;179.65;;;;;;;12.02;100.00;99485.44;5037811;28;20127;-80
2023/07/29 05:19:15;;;;;;;310.90;179.38;;;;;;;12.03;100.00;99483.56;5037293;28;20037;-80
2023/07/29 05:21:40;;;;;;;312.48;180.40;;;;;;;12.03;100.00;99489.78;5021505;28;20464;-80
2023/07/29 05:24:06;;;;;;;314.38;181.48;;;;;;;12.07;100.00;99495.59;5049696;28;20064;-80
2023/07/29 05:26:32;;;;;;;316.33;182.95;;;;;;;12.04;100.00;99488.75;5041455;28;20025;-80
2023/07/29 05:28:58;;;;;;;317.90;183.45;;;;;;;12.08;100.00;99497.22;5058085;28;20531;-80
2023/07/29 05:31:23;;;;;;;318.17;183.70;;;;;;;12.05;100.00;99503.06;5057187;28;20038;-80
2023/07/29 05:33:49;;;;;;;317.55;183.35;;;;;;;12.02;100.00;99481.94;5057513;28;20120;-80
2023/07/29 05:36:15;;;;;;;319.02;184.05;;;;;;;12.09;100.00;99491.63;5073908;28;20025;-80
2023/07/29 05:38:41;;;;;;;317.20;183.27;;;;;;;12.22;100.00;99496.09;5073858;28;20384;-83
2023/07/29 05:41:07;;;;;;;313.38;180.55;;;;;;;12.29;100.00;99496.06;5074842;28;20055;-80
2023/07/29 05:43:32;;;;;;;316.00;181.70;;;;;;;12.42;100.00;99487.06;5073881;28;20036;-81
2023/07/29 05:45:58;;;;;;;312.10;179.15;;;;;;;12.68;100.00;99492.22;5041027;28;20040;-81
2023/07/29 05:48:24;;;;;;;317.77;181.25;;;;;;;12.87;100.00;99495.78;5073638;28;20066;-80
2023/07/29 05:50:50;;;;;;;261.02;151.73;;;;;;;13.11;100.00;99499.50;5040756;28;20467;-81
2023/07/29 05:53:15;;;;;;;250.20;147.00;;;;;;;13.30;100.00;99488.75;5073820;28;20120;-81
2023/07/29 05:55:41;;;;;;;248.52;145.98;;;;;;;13.38;100.00;99496.56;5057255;28;20036;-82
2023/07/29 05:58:07;;;;;;;252.82;147.15;;;;;;;13.32;100.00;99497.47;5074725;28;20524;-82
2023/07/29 06:00:32;;;;;;;258.50;149.13;;;;;;;13.12;100.00;99493.03;5056690;28;20028;-81
2023/07/29 06:02:58;;;;;;;284.58;161.57;;;;;;;12.90;100.00;99503.44;5056948;28;20040;-80
2023/07/29 06:05:24;;;;;;;316.67;177.93;;;;;;;12.91;100.00;99498.88;5073305;28;20090;-80
2023/07/29 06:07:49;;;;;;;248.70;145.27;;;;;;;13.46;100.00;99484.63;5072538;28;20036;-80
2023/07/29 06:10:18;;;;;;;242.35;142.40;;;;;;;14.07;100.00;99500.66;5071530;28;20043;-81
2023/07/29 06:12:45;;;;;;;243.32;142.00;;;;;;;14.45;100.00;99506.78;5071613;28;20071;-81
2023/07/29 06:15:12;;;;;;;251.88;144.98;;;;;;;14.11;100.00;99502.91;5040355;28;20044;-81
2023/07/29 06:17:38;;;;;;;257.40;147.48;;;;;;;13.99;100.00;99506.38;5054606;28;20024;-81
2023/07/29 06:20:04;;;;;;;260.30;148.32;;;;;;;14.01;100.00;99508.88;5073139;28;20028;-81
2023/07/29 06:22:30;;;;;;;263.00;149.32;;;;;;;13.98;100.00;99488.53;5056712;28;20082;-81
2023/07/29 06:24:55;;;;;;;268.02;151.45;;;;;;;14.08;100.00;99502.31;5056289;28;20029;-81
2023/07/29 06:27:21;;;;;;;269.15;151.48;;;;;;;14.42;100.00;99513.47;5056731;28;20544;-82
2023/07/29 06:29:46;;;;;;;269.48;151.50;;;;;;;14.80;100.00;99514.97;5074144;28;20025;-82
2023/07/29 06:32:12;;;;;;;264.92;149.05;;;;;;;15.50;100.00;99511.41;5071852;28;20024;-82
2023/07/29 06:34:38;;;;;;;272.83;151.38;;;;;;;16.25;100.00;99513.19;5073985;28;20055;-82
2023/07/29 06:37:03;;;;;;;312.92;169.48;;;;;;;15.74;100.00;99514.09;5064815;28;20396;-81
2023/07/29 06:39:29;;;;;;;315.35;169.40;;;;;;;15.19;100.00;99518.06;5037055;28;20479;-82
2023/07/29 06:41:55;;;;;;;294.13;159.18;;;;;;;15.42;100.00;99516.38;5054852;28;20037;-82
2023/07/29 06:44:20;;;;;;;333.77;178.35;;;;;;;16.42;100.00;99521.34;5053455;28;20058;-82
2023/07/29 06:46:46;;;;;;;362.73;191.73;;;;;;;16.38;100.00;99524.78;5071831;28;20067;-82
2023/07/29 06:49:12;;;;;;;374.70;195.88;;;;;;;16.90;100.00;99527.34;5066498;28;20038;-82
2023/07/29 06:51:37;;;;;;;306.55;162.48;;;;;;;17.32;100.00;99524.97;5054049;28;20075;-84
2023/07/29 06:54:03;;;;;;;346.90;181.23;;;;;;;17.83;100.00;99522.13;5050650;28;20058;-80
2023/07/29 06:56:29;;;;;;;494.63;246.18;;;;;;;18.60;100.00;99518.31;5051811;28;20475;-81
2023/07/29 06:58:54;;;;;;;488.75;240.80;;;;;;;18.26;100.00;99533.19;5049837;28;20089;-83
2023/07/29 07:01:20;;;;;;;495.38;244.70;;;;;;;17.11;100.00;99533.91;5053020;28;20052;-83
2023/07/29 07:03:46;;;;;;;491.55;243.30;;;;;;;16.12;100.00;99528.94;5068785;28;20036;-82
2023/07/29 07:06:11;;;;;;;442.85;221.80;;;;;;;15.47;100.00;99530.84;5067062;28;20035;-82
2023/07/29 07:08:37;;;;;;;435.08;218.75;;;;;;;15.02;100.00;99528.75;5054721;28;20039;-81
2023/07/29 07:11:02;;;;;;;433.77;220.35;;;;;;;14.94;100.00;99531.81;5032578;28;20033;-82
2023/07/29 07:13:28;;;;;;;463.58;232.88;;;;;;;15.73;100.00;99540.38;5067543;28;20067;-81
2023/07/29 07:15:55;;;;;;;420.85;215.27;;;;;;;16.00;100.00;99534.41;5051332;28;20025;-81
2023/07/29 07:18:22;;;;;;;448.42;228.23;;;;;;;15.75;100.00;99532.84;5069808;28;20033;-80
2023/07/29 07:20:51;;;;;;;445.90;227.40;;;;;;;15.63;100.00;99540.13;5069269;28;20170;-81
2023/07/29 07:23:18;;;;;;;454.83;231.18;;;;;;;16.24;100.00;99532.41;5067604;28;20156;-81
2023/07/29 07:25:44;;;;;;;447.65;228.23;;;;;;;15.87;100.00;99540.09;5037046;28;20487;-81
2023/07/29 07:28:10;;;;;;;347.25;182.35;;;;;;;15.23;100.00;99545.47;5049964;28;20151;-82
2023/07/29 07:30:40;;;;;;;399.33;207.75;;;;;;;15.08;100.00;99538.66;5052361;28;20036;-80
2023/07/29 07:33:06;;;;;;;450.17;229.70;;;;;;;16.14;100.00;99541.19;5051953;28;20090;-81
2023/07/29 07:35:31;;;;;;;444.73;225.40;;;;;;;16.57;100.00;99536.28;5051996;28;20032;-80
2023/07/29 07:37:58;;;;;;;455.38;228.85;;;;;;;16.81;100.00;99539.69;5049061;28;20564;-80
2023/07/29 07:40:24;;;;;;;446.70;224.57;;;;;;;17.09;100.00;99536.03;5065594;28;20028;-80
2023/07/29 07:42:50;;;;;;;450.77;227.73;;;;;;;16.93;100.00;99543.13;5035880;28;20085;-80
2023/07/29 07:45:18;;;;;;;443.25;223.07;;;;;;;17.67;100.00;99542.84;5039138;28;20032;-82
2023/07/29 07:47:44;;;;;;;452.02;226.43;;;;;;;17.58;100.00;99545.16;5054245;28;20086;-81
2023/07/29 07:50:10;;;;;;;451.25;225.52;;;;;;;16.99;100.00;99546.75;5070218;28;20041;-81
2023/07/29 07:52:35;;;;;;;453.80;225.10;;;;;;;16.35;100.00;99538.84;5073424;28;20424;-82
2023/07/29 07:55:01;;;;;;;440.08;220.88;;;;;;;15.93;100.00;99555.41;5056463;28;20039;-81
2023/07/29 07:57:27;;;;;;;445.45;225.27;;;;;;;15.82;100.00;99555.22;5035993;28;20490;-81
2023/07/29 07:59:52;;;;;;;427.98;217.90;;;;;;;16.00;100.00;99556.91;5075684;28;20029;-81
2023/07/29 08:02:18;;;;;;;442.13;223.65;;;;;;;16.56;100.00;99564.47;5054592;28;20051;-83
2023/07/29 08:04:47;;;;;;;426.58;215.80;;;;;;;17.13;100.00;99580.66;5042742;28;20064;-83
2023/07/29 08:07:13;;;;;;;412.48;209.55;;;;;;;16.42;100.00;99564.75;5053506;28;20475;-80
2023/07/29 08:09:39;;;;;;;426.77;217.45;;;;;;;15.72;100.00;99571.25;5054925;28;20525;-82
2023/07/29 08:12:05;;;;;;;420.33;213.00;;;;;;;15.41;100.00;99571.63;5057975;28;20032;-81
2023/07/29 08:14:30;;;;;;;434.23;220.85;;;;;;;15.28;100.00;99576.19;5074549;28;20090;-82
2023/07/29 08:16:56;;;;;;;418.08;212.48;;;;;;;15.51;100.00;99577.25;5038571;28;20037;-81
2023/07/29 08:19:21;;;;;;;426.73;217.57;;;;;;;15.77;100.00;99574.06;5052428;28;20487;-81
2023/07/29 08:21:47;;;;;;;437.20;223.55;;;;;;;15.80;100.00;99586.31;5054549;28;20099;-80
2023/07/29 08:24:13;;;;;;;410.15;211.27;;;;;;;15.46;100.00;99569.84;5063641;28;20467;-80
2023/07/29 08:26:38;;;;;;;408.95;211.43;;;;;;;15.49;100.00;99596.47;5052198;28;20064;-81
2023/07/29 08:29:04;;;;;;;406.65;210.32;;;;;;;15.55;100.00;99591.97;5037829;28;20024;-81
2023/07/29 08:31:33;;;;;;;417.90;215.65;;;;;;;15.77;100.00;99603.88;5038475;28;20037;-86
2023/07/29 08:34:00;;;;;;;412.75;211.55;;;;;;;16.04;100.00;99595.22;5074245;28;20040;-84
2023/07/29 08:36:28;;;;;;;419.20;215.70;;;;;;;16.19;100.00;99602.81;5058999;28;20033;-84
2023/07/29 08:38:54;;;;;;;417.70;214.65;;;;;;;16.34;100.00;99596.88;5075175;28;20436;-86
2023/07/29 08:41:25;;;;;;;430.10;218.70;;;;;;;16.64;100.00;99599.34;5041663;28;20048;-86
2023/07/29 08:44:12;;;;;;;420.50;215.52;;;;;;;16.79;100.00;99601.53;5053860;28;20136;-85
2023/07/29 08:46:39;;;;;;;430.50;217.80;;;;;;;16.86;100.00;99578.59;5037547;28;20079;-85
2023/07/29 08:49:05;;;;;;;425.05;214.60;;;;;;;17.06;100.00;99607.97;5038333;28;20487;-85
2023/07/29 08:51:31;;;;;;;425.85;215.90;;;;;;;17.06;100.00;99596.28;5022658;28;20071;-85
2023/07/29 08:53:58;;;;;;;424.23;215.65;;;;;;;17.51;100.00;99606.22;5040208;28;20545;-84
2023/07/29 08:56:24;;;;;;;435.80;219.15;;;;;;;18.74;100.00;99611.28;5074341;28;20024;-84
2023/07/29 08:58:50;;;;;;;441.52;218.50;;;;;;;18.73;100.00;99615.06;5058511;28;20060;-83
2023/07/29 09:01:16;;;;;;;428.75;213.75;;;;;;;18.13;100.00;99607.91;5058633;28;20074;-86
2023/07/29 09:03:41;;;;;;;435.58;215.65;;;;;;;17.89;100.00;99599.16;5055826;28;20442;-83
2023/07/29 09:06:07;;;;;;;430.73;212.82;;;;;;;18.03;100.00;99595.00;5041688;28;20029;-82
2023/07/29 09:08:35;;;;;;;437.55;216.18;;;;;;;18.01;100.00;99611.56;5073403;28;20021;-82
2023/07/29 09:11:01;;;;;;;429.38;213.27;;;;;;;17.32;100.00;99586.66;5074034;28;20147;-84
2023/07/29 09:13:26;;;;;;;427.10;212.30;;;;;;;16.63;100.00;99622.13;5073194;28;20453;-83
2023/07/29 09:15:57;;;;;;;424.92;212.45;;;;;;;15.65;100.00;99605.75;5074647;28;20121;-84
2023/07/29 09:18:26;;;;;;;381.40;195.55;;;;;;;15.17;100.00;99617.66;5056939;28;20029;-83
2023/07/29 09:20:53;;;;;;;368.75;191.07;;;;;;;15.17;100.00;99629.28;5058172;28;20036;-84
2023/07/29 09:23:19;;;;;;;415.55;212.18;;;;;;;15.63;100.00;99626.00;5040492;28;20032;-83
2023/07/29 09:25:47;;;;;;;398.88;205.43;;;;;;;15.92;100.00;99635.09;5074240;28;20391;-83
2023/07/29 09:28:15;;;;;;;420.20;213.82;;;;;;;17.39;100.00;99629.97;5056326;28;20079;-85
2023/07/29 09:30:42;;;;;;;419.83;212.48;;;;;;;18.78;100.00;99628.75;5024293;28;20040;-84
2023/07/29 09:33:09;;;;;;;424.00;214.35;;;;;;;17.65;100.00;99618.41;5041296;28;20467;-84
2023/07/29 09:35:36;;;;;;;425.25;215.05;;;;;;;17.26;100.00;99631.94;5057348;28;20077;-84
2023/07/29 09:38:06;;;;;;;423.35;213.90;;;;;;;17.12;100.00;99611.59;5057600;28;20032;-84
2023/07/29 09:40:40;;;;;;;422.85;212.20;;;;;;;19.51;100.00;99633.75;5068242;28;20028;-84
2023/07/29 09:43:07;;;;;;;436.75;216.57;;;;;;;21.93;100.00;99623.88;5059115;28;20036;-84
2023/07/29 09:45:37;;;;;;;440.52;215.68;;;;;;;22.36;100.00;99639.91;5025146;28;20077;-84
2023/07/29 09:48:05;;;;;;;431.80;211.27;;;;;;;20.43;100.00;99643.25;5056783;28;20071;-84
2023/07/29 09:50:31;;;;;;;425.13;209.20;;;;;;;18.33;100.00;99638.06;5036141;28;20438;-84
2023/07/29 09:53:00;;;;;;;432.33;212.82;;;;;;;16.57;100.00;99651.06;5032311;28;20036;-81
2023/07/29 09:55:26;;;;;;;427.13;211.60;;;;;;;15.76;100.00;99648.28;5072632;28;20451;-81
2023/07/29 09:58:03;;;;;;;429.55;214.55;;;;;;;15.73;100.00;99662.31;5056896;28;20032;-81
2023/07/29 10:00:30;;;;;;;425.65;213.55;;;;;;;15.86;100.00;99655.84;5037598;28;20040;-81
2023/07/29 10:02:57;;;;;;;413.83;209.13;;;;;;;16.27;100.00;99668.38;5073649;28;20582;-83
2023/07/29 10:05:26;;;;;;;400.05;203.02;;;;;;;16.74;100.00;99666.56;5054661;28;20040;-84
2023/07/29 10:07:52;;;;;;;409.33;207.50;;;;;;;17.37;100.00;99668.25;5038857;28;20044;-82
2023/07/29 10:10:17;;;;;;;401.70;203.13;;;;;;;17.79;100.00;99665.94;5040477;28;20024;-82
2023/07/29 10:12:43;;;;;;;401.00;202.38;;;;;;;17.89;100.00;99678.00;5073129;28;20490;-83
2023/07/29 10:15:09;;;;;;;411.52;206.45;;;;;;;17.88;100.00;99677.19;5054908;28;20482;-85
2023/07/29 10:17:39;;;;;;;414.00;207.80;;;;;;;17.71;100.00;99657.34;5034656;28;20033;-83
2023/07/29 10:20:06;;;;;;;422.10;210.90;;;;;;;17.95;100.00;99672.41;5070188;28;20112;-84
2023/07/29 10:22:43;;;;;;;420.23;210.13;;;;;;;18.32;100.00;99671.78;5039870;28;20421;-86
2023/07/29 10:25:10;;;;;;;410.30;204.77;;;;;;;18.70;100.00;99697.28;5052647;28;20061;-83
2023/07/29 10:28:01;;;;;;;403.48;201.63;;;;;;;18.73;100.00;99674.16;5072056;28;20090;-84
2023/07/29 10:30:33;;;;;;;391.48;195.52;;;;;;;19.48;100.00;99680.63;5056922;28;20040;-84
2023/07/29 10:33:05;;;;;;;386.23;192.57;;;;;;;19.74;100.00;99674.28;5039198;28;20037;-84
2023/07/29 10:35:33;;;;;;;395.10;195.68;;;;;;;20.20;100.00;99699.09;5073417;28;20082;-84
2023/07/29 10:37:59;;;;;;;405.75;199.52;;;;;;;20.57;100.00;99691.94;5056694;28;20123;-85
2023/07/29 10:40:25;;;;;;;422.10;206.25;;;;;;;20.57;100.00;99697.38;5056476;28;20479;-85
2023/07/29 10:43:02;;;;;;;405.40;199.15;;;;;;;20.52;100.00;99706.34;5055603;28;20041;-85
2023/07/29 10:45:37;;;;;;;417.60;203.95;;;;;;;20.07;100.00;99709.69;5056196;28;20044;-85
2023/07/29 10:48:10;;;;;;;411.88;201.38;;;;;;;19.01;100.00;99713.97;5056420;28;20025;-85
2023/07/29 10:50:36;;;;;;;426.13;208.43;;;;;;;17.68;100.00;99701.34;5055998;28;20082;-84
2023/07/29 10:53:01;;;;;;;426.23;208.93;;;;;;;17.27;100.00;99722.41;5055519;28;20068;-84